»·PEaware :: QXE2972 KSEA-KMFR

QXE2972 :: KSEA-KMFR

FLIGHT INFORMATION

Flight Status: Arrived
Operator:
Horizon Air
More flights by this operator :: More flights under this callsign
Pilot: Christian A. (580)
Aircraft: DEHAVILLAND DASH 8 400
(DH8D)
More flights by this aircraft type
Origin: KSEA Seattle-Tacoma Intl
United States
Destination: KMFR Rogue Valley Intl-Medford
United States
More flights between these airports :: More routes between these airports
Route: +SEA6 ALDER J1 OED
File this flight plan on PilotEdge
Remarks:
Altitude:
(Current/Filed)
23,000ft
Speed:
(Current/Filed)
326kts
Departed: 27-Jun-18 05:27 PM
Arrived: 27-Jun-18 06:45 PM
Distance/Time
Traveled:
306nm/1:18
Distance/Time
To Go:
Arrived

Flight Plot

Page will automatically refresh every two minutes.

Flight plan parsing failed; only flown route is shown


Map Options




Map Legend


Flown Route
Filed Route
Departure Airport
Arrival Airport
Navaid (VOR, NDB)
Fix

Horizontal Profiles

Position Reports

Time Latitude Longitude Heading Altitude Ground
Speed
27-Jun-18 16:58 47.443695 -122.304368 1 440ft 0kts
27-Jun-18 16:59 47.443695 -122.304368 1 440ft 0kts
27-Jun-18 17:00 47.443695 -122.304368 1 440ft 0kts
27-Jun-18 17:01 47.443695 -122.304368 1 440ft 0kts
27-Jun-18 17:02 47.443695 -122.304368 1 440ft 0kts
27-Jun-18 17:03 47.443695 -122.304368 1 440ft 0kts
27-Jun-18 17:04 47.443695 -122.304368 1 440ft 0kts
27-Jun-18 17:05 47.443695 -122.304368 1 440ft 0kts
27-Jun-18 17:06 47.443695 -122.304368 1 440ft 0kts
27-Jun-18 17:07 47.443695 -122.304368 1 440ft 0kts
27-Jun-18 17:08 47.443695 -122.304368 1 440ft 0kts
27-Jun-18 17:09 47.443695 -122.304368 1 440ft 0kts
27-Jun-18 17:10 47.443695 -122.304368 1 440ft 0kts
27-Jun-18 17:11 47.443695 -122.304368 1 440ft 0kts
27-Jun-18 17:12 47.443695 -122.304368 1 440ft 0kts
27-Jun-18 17:13 47.443695 -122.304368 1 440ft 0kts
27-Jun-18 17:14 47.443695 -122.304368 1 440ft 0kts
27-Jun-18 17:15 47.443695 -122.304368 1 440ft 0kts
27-Jun-18 17:16 47.443471 -122.304333 334 440ft 2kts
27-Jun-18 17:17 47.443409 -122.303916 243 440ft 0kts
27-Jun-18 17:18 47.443409 -122.303916 243 440ft 0kts
27-Jun-18 17:19 47.443408 -122.303918 243 440ft 0kts
27-Jun-18 17:20 47.443203 -122.304662 262 440ft 0kts
27-Jun-18 17:21 47.444457 -122.306341 0 440ft 18kts
27-Jun-18 17:22 47.449054 -122.306278 0 440ft 13kts
27-Jun-18 17:23 47.453584 -122.306240 0 440ft 20kts
27-Jun-18 17:24 47.459655 -122.306187 0 440ft 23kts
27-Jun-18 17:25 47.463385 -122.306181 351 440ft 0kts
27-Jun-18 17:26 47.463379 -122.306180 351 440ft 0kts
27-Jun-18 17:27 47.461818 -122.307794 180 440ft 46kts
27-Jun-18 17:28 47.424919 -122.307170 180 1864ft 163kts
27-Jun-18 17:29 47.374201 -122.307738 181 2957ft 202kts
27-Jun-18 17:30 47.315878 -122.310253 187 4220ft 204kts
27-Jun-18 17:31 47.260137 -122.321809 188 7193ft 205kts
27-Jun-18 17:32 47.201552 -122.334260 188 9906ft 214kts
27-Jun-18 17:33 47.142533 -122.345939 189 12414ft 215kts
27-Jun-18 17:34 47.084855 -122.357798 191 14523ft 218kts
27-Jun-18 17:35 47.024199 -122.370667 191 16402ft 222kts
27-Jun-18 17:36 46.963040 -122.383599 192 18058ft 224kts
27-Jun-18 17:37 46.901302 -122.396830 192 19490ft 228kts
27-Jun-18 17:38 46.838130 -122.410543 192 20762ft 232kts
27-Jun-18 17:39 46.774363 -122.422628 190 21899ft 235kts
27-Jun-18 17:40 46.709357 -122.433277 190 22867ft 241kts
27-Jun-18 17:41 46.639240 -122.445195 190 23000ft 270kts
27-Jun-18 17:42 46.562264 -122.457897 190 23005ft 290kts
27-Jun-18 17:43 46.482017 -122.471277 190 23017ft 297kts
27-Jun-18 17:44 46.400450 -122.484716 190 23020ft 302kts
27-Jun-18 17:45 46.317402 -122.498452 190 23021ft 306kts
27-Jun-18 17:46 46.233213 -122.512374 190 23023ft 307kts
27-Jun-18 17:47 46.149387 -122.526140 190 23023ft 308kts
27-Jun-18 17:48 46.065077 -122.539894 190 23016ft 309kts
27-Jun-18 17:49 45.977927 -122.554185 190 23008ft 309kts
27-Jun-18 17:50 45.886753 -122.569036 190 22994ft 308kts
27-Jun-18 17:51 45.801505 -122.582862 190 22982ft 307kts
27-Jun-18 17:52 45.714881 -122.596058 188 22975ft 308kts
27-Jun-18 17:53 45.626913 -122.604679 188 22973ft 307kts
27-Jun-18 17:54 45.537469 -122.613915 188 22978ft 305kts
27-Jun-18 17:55 45.448469 -122.623084 188 22975ft 304kts
27-Jun-18 17:56 45.358571 -122.632303 188 22970ft 304kts
27-Jun-18 17:57 45.275531 -122.640836 188 22965ft 304kts
27-Jun-18 17:58 45.192178 -122.649279 188 22963ft 304kts
27-Jun-18 17:59 45.109575 -122.657672 188 22961ft 304kts
27-Jun-18 18:00 45.026459 -122.666108 188 22960ft 304kts
27-Jun-18 18:01 44.942953 -122.674540 188 22957ft 304kts
27-Jun-18 18:02 44.859450 -122.682884 188 22956ft 304kts
27-Jun-18 18:03 44.776340 -122.691311 188 22957ft 304kts
27-Jun-18 18:04 44.692922 -122.699668 188 22958ft 304kts
27-Jun-18 18:05 44.609959 -122.707924 188 22964ft 303kts
27-Jun-18 18:06 44.527376 -122.716115 188 22979ft 303kts
27-Jun-18 18:07 44.444631 -122.724380 188 22967ft 303kts
27-Jun-18 18:08 44.361843 -122.732553 188 22971ft 301kts
27-Jun-18 18:09 44.279974 -122.740637 188 22970ft 298kts
27-Jun-18 18:10 44.197183 -122.748737 188 22969ft 297kts
27-Jun-18 18:11 44.115200 -122.756898 188 22971ft 296kts
27-Jun-18 18:12 44.035352 -122.764664 188 22970ft 296kts
27-Jun-18 18:13 43.947621 -122.773200 188 23071ft 294kts
27-Jun-18 18:14 43.861152 -122.781651 188 23089ft 296kts
27-Jun-18 18:15 43.773701 -122.790159 188 23088ft 298kts
27-Jun-18 18:16 43.690200 -122.798264 187 23087ft 299kts
27-Jun-18 18:17 43.605393 -122.806520 188 21913ft 311kts
27-Jun-18 18:18 43.519402 -122.814717 188 20078ft 305kts
27-Jun-18 18:19 43.434214 -122.822945 188 18256ft 305kts
27-Jun-18 18:20 43.349524 -122.831094 188 16449ft 306kts
27-Jun-18 18:21 43.264006 -122.852256 193 14889ft 298kts
27-Jun-18 18:22 43.180878 -122.874632 194 13856ft 293kts
27-Jun-18 18:23 43.094989 -122.897653 193 12779ft 292kts
27-Jun-18 18:24 43.011150 -122.920076 193 11973ft 289kts
27-Jun-18 18:25 42.927389 -122.942340 193 11238ft 291kts
27-Jun-18 18:26 42.844086 -122.964364 192 10509ft 294kts
27-Jun-18 18:27 42.760916 -122.986175 192 9754ft 279kts
27-Jun-18 18:28 42.684355 -123.006263 191 8882ft 271kts
27-Jun-18 18:29 42.616801 -122.958503 130 7952ft 272kts
27-Jun-18 18:30 42.567329 -122.872135 125 7378ft 264kts
27-Jun-18 18:31 42.520348 -122.784872 126 7308ft 268kts
27-Jun-18 18:32 42.482384 -122.715448 126 7302ft 264kts
27-Jun-18 18:33 42.439184 -122.636692 126 7302ft 258kts
27-Jun-18 18:34 42.390584 -122.550185 134 7297ft 237kts
27-Jun-18 18:35 42.337355 -122.510472 171 7294ft 213kts
27-Jun-18 18:36 42.280114 -122.516002 201 7292ft 206kts
27-Jun-18 18:37 42.234482 -122.559591 234 6941ft 208kts
27-Jun-18 18:38 42.214036 -122.614577 258 6081ft 190kts
27-Jun-18 18:39 42.213225 -122.680019 283 5204ft 188kts
27-Jun-18 18:40 42.236659 -122.740403 299 4321ft 187kts
27-Jun-18 18:41 42.265541 -122.801722 313 3360ft 159kts
27-Jun-18 18:42 42.294577 -122.830337 331 2777ft 149kts
27-Jun-18 18:43 42.327447 -122.848642 336 2096ft 122kts
27-Jun-18 18:44 42.359690 -122.865250 338 1428ft 118kts
27-Jun-18 18:45 42.375876 -122.873680 339 1342ft 14kts
27-Jun-18 18:46 42.376088 -122.874991 246 1342ft 3kts
27-Jun-18 18:47 42.371066 -122.872697 158 1342ft 28kts
27-Jun-18 18:48 42.369110 -122.873500 248 1342ft 0kts
27-Jun-18 18:49 42.369110 -122.873500 248 1342ft 0kts
27-Jun-18 18:50 42.369110 -122.873500 248 1342ft 0kts

Navigation Log

Ident Type
Flight plan parsing failed, navigation log unavailable